Time;durP1;ratioP1;P1;durP2;ratioP2;P2;SDS_P1;SDS_P2;PMS_P1;PMS_P2;Temp;Humidity;BMP_temperature;BMP_pressure;BME280_temperature;BME280_humidity;BME280_pressure;Samples;Min_cycle;Max_cycle;Signal;HPM_P1;HPM_P2
2023/08/25 00:00:22;;;;;;;96.72;69.85;;;;;;;;;;5081135;28;20050;-56
2023/08/25 00:02:48;;;;;;;95.55;68.97;;;;;;;;;;5079880;28;20044;-57
2023/08/25 00:05:14;;;;;;;100.53;70.30;;;;;;;;;;5080488;28;20949;-56
2023/08/25 00:07:40;;;;;;;108.20;71.18;;;;;;;;;;5080774;28;20048;-56
2023/08/25 00:10:07;;;;;;;102.50;69.78;;;;;;;;;;5078450;28;20036;-56
2023/08/25 00:12:33;;;;;;;107.32;71.78;;;;;;;;;;5080012;28;20040;-56
2023/08/25 00:14:59;;;;;;;101.57;69.88;;;;;;;;;;5090528;28;20185;-57
2023/08/25 00:17:25;;;;;;;106.95;70.18;;;;;;;;;;5091059;28;20039;-56
2023/08/25 00:19:52;;;;;;;106.40;69.10;;;;;;;;;;5093747;28;20509;-57
2023/08/25 00:22:18;;;;;;;101.32;69.88;;;;;;;;;;5083313;28;20567;-56
2023/08/25 00:24:44;;;;;;;104.10;71.40;;;;;;;;;;5087376;28;20048;-62
2023/08/25 00:27:11;;;;;;;105.13;70.20;;;;;;;;;;5086775;28;20086;-56
2023/08/25 00:29:37;;;;;;;108.43;71.05;;;;;;;;;;5092045;28;20052;-57
2023/08/25 00:32:03;;;;;;;110.28;71.75;;;;;;;;;;5092449;28;20036;-56
2023/08/25 00:34:30;;;;;;;106.70;71.45;;;;;;;;;;5093409;28;20491;-56
2023/08/25 00:36:56;;;;;;;105.97;69.00;;;;;;;;;;5095307;28;20066;-57
2023/08/25 00:39:22;;;;;;;97.20;66.95;;;;;;;;;;5093710;28;20174;-57
2023/08/25 00:41:48;;;;;;;99.43;65.32;;;;;;;;;;5095154;28;20055;-57
2023/08/25 00:44:14;;;;;;;100.72;67.53;;;;;;;;;;5092829;28;20028;-56
2023/08/25 00:46:41;;;;;;;98.93;66.30;;;;;;;;;;5088699;28;20068;-56
2023/08/25 00:49:07;;;;;;;94.47;65.45;;;;;;;;;;5092164;28;20505;-57
2023/08/25 00:51:34;;;;;;;128.20;69.50;;;;;;;;;;5092104;28;20504;-57
2023/08/25 00:54:00;;;;;;;116.22;67.72;;;;;;;;;;5090815;28;20047;-57
2023/08/25 00:56:26;;;;;;;104.03;68.55;;;;;;;;;;5099670;28;20076;-57
2023/08/25 00:58:54;;;;;;;124.05;69.45;;;;;;;;;;5091811;28;20047;-56
2023/08/25 01:01:21;;;;;;;117.63;68.88;;;;;;;;;;5089332;28;20048;-57
2023/08/25 01:03:50;;;;;;;134.65;71.82;;;;;;;;;;5095322;28;20482;-56
2023/08/25 01:06:16;;;;;;;136.13;73.22;;;;;;;;;;5092223;28;20102;-57
2023/08/25 01:08:43;;;;;;;127.50;71.07;;;;;;;;;;5095240;28;20036;-57
2023/08/25 01:11:14;;;;;;;115.75;69.18;;;;;;;;;;5090656;28;20059;-56
2023/08/25 01:13:54;;;;;;;122.28;69.88;;;;;;;;;;5090466;28;20058;-56
2023/08/25 01:16:22;;;;;;;137.32;70.15;;;;;;;;;;5090316;28;20044;-56
2023/08/25 01:18:49;;;;;;;128.90;70.18;;;;;;;;;;5089313;28;20467;-56
2023/08/25 01:21:15;;;;;;;120.93;68.43;;;;;;;;;;5091332;28;20040;-56
2023/08/25 01:23:56;;;;;;;129.48;71.72;;;;;;;;;;5087255;28;20040;-57
2023/08/25 01:26:23;;;;;;;131.70;73.10;;;;;;;;;;5088283;28;20040;-57
2023/08/25 01:28:51;;;;;;;147.48;73.68;;;;;;;;;;5094079;28;20040;-57
2023/08/25 01:31:19;;;;;;;143.65;74.50;;;;;;;;;;5100365;28;20040;-57
2023/08/25 01:33:46;;;;;;;134.57;71.68;;;;;;;;;;5084306;28;20169;-56
2023/08/25 01:36:12;;;;;;;127.68;69.68;;;;;;;;;;5090396;28;20044;-57
2023/08/25 01:38:47;;;;;;;146.25;72.57;;;;;;;;;;5089591;28;20066;-56
2023/08/25 01:41:13;;;;;;;153.88;71.95;;;;;;;;;;5098864;28;20040;-56
2023/08/25 01:43:44;;;;;;;157.65;75.45;;;;;;;;;;5090014;28;20038;-56
2023/08/25 01:46:11;;;;;;;153.52;71.78;;;;;;;;;;5091466;28;20344;-56
2023/08/25 01:48:38;;;;;;;157.93;74.65;;;;;;;;;;5088134;28;20491;-57
2023/08/25 01:51:05;;;;;;;161.02;74.65;;;;;;;;;;5091040;28;20044;-56
2023/08/25 01:53:32;;;;;;;173.85;77.90;;;;;;;;;;5089843;28;20135;-57
2023/08/25 01:55:58;;;;;;;155.50;77.63;;;;;;;;;;5088779;28;20071;-56
2023/08/25 01:58:24;;;;;;;164.57;74.28;;;;;;;;;;5088813;28;20047;-56
2023/08/25 02:00:50;;;;;;;150.18;72.78;;;;;;;;;;5089818;28;20436;-56
2023/08/25 02:03:17;;;;;;;145.43;72.82;;;;;;;;;;5090838;28;20064;-56
2023/08/25 02:05:44;;;;;;;150.00;72.63;;;;;;;;;;5090274;28;20052;-56
2023/08/25 02:08:10;;;;;;;165.13;74.15;;;;;;;;;;5076801;28;20428;-56
2023/08/25 02:10:36;;;;;;;168.85;76.78;;;;;;;;;;5084128;28;20111;-56
2023/08/25 02:13:02;;;;;;;165.05;75.60;;;;;;;;;;5083139;28;20059;-56
2023/08/25 02:15:28;;;;;;;170.63;75.97;;;;;;;;;;5089623;28;20039;-57
2023/08/25 02:17:54;;;;;;;164.15;73.53;;;;;;;;;;5090406;28;20531;-56
2023/08/25 02:20:21;;;;;;;170.55;75.50;;;;;;;;;;5090673;28;20070;-56
2023/08/25 02:22:47;;;;;;;164.32;75.78;;;;;;;;;;5089081;28;20182;-56
2023/08/25 02:25:13;;;;;;;160.65;76.57;;;;;;;;;;5089093;28;20040;-57
2023/08/25 02:27:39;;;;;;;168.77;76.38;;;;;;;;;;5090253;28;20117;-56
2023/08/25 02:30:06;;;;;;;175.52;80.07;;;;;;;;;;5087853;28;20364;-56
2023/08/25 02:32:32;;;;;;;177.18;78.80;;;;;;;;;;5090394;28;20437;-57
2023/08/25 02:34:58;;;;;;;186.57;78.10;;;;;;;;;;5090180;28;20048;-56
2023/08/25 02:37:24;;;;;;;175.02;76.72;;;;;;;;;;5090011;28;20032;-56
2023/08/25 02:39:51;;;;;;;166.02;76.00;;;;;;;;;;5084438;28;20217;-56
2023/08/25 02:42:17;;;;;;;179.57;77.97;;;;;;;;;;5090140;28;20110;-56
2023/08/25 02:44:43;;;;;;;185.73;76.80;;;;;;;;;;5088595;28;20098;-56
2023/08/25 02:47:10;;;;;;;190.43;79.68;;;;;;;;;;5087547;28;20498;-56
2023/08/25 02:49:38;;;;;;;183.43;80.82;;;;;;;;;;5092570;28;20044;-57
2023/08/25 02:52:05;;;;;;;204.75;80.75;;;;;;;;;;5082660;28;20052;-57
2023/08/25 02:54:31;;;;;;;176.10;80.63;;;;;;;;;;5080627;28;20492;-56
2023/08/25 02:56:57;;;;;;;176.95;74.13;;;;;;;;;;5080111;28;20462;-57
2023/08/25 02:59:24;;;;;;;186.88;79.53;;;;;;;;;;5082587;28;20166;-56
2023/08/25 03:01:50;;;;;;;167.98;77.57;;;;;;;;;;5082932;28;20055;-56
2023/08/25 03:04:16;;;;;;;175.43;78.65;;;;;;;;;;5084184;28;20480;-56
2023/08/25 03:06:44;;;;;;;190.52;76.45;;;;;;;;;;5082881;28;20441;-56
2023/08/25 03:09:10;;;;;;;169.55;77.38;;;;;;;;;;5082190;28;20433;-57
2023/08/25 03:11:36;;;;;;;175.38;76.57;;;;;;;;;;5080101;28;20043;-57
2023/08/25 03:14:02;;;;;;;172.50;76.18;;;;;;;;;;5082150;28;20097;-56
2023/08/25 03:16:28;;;;;;;176.65;78.72;;;;;;;;;;5082735;28;20472;-56
2023/08/25 03:18:55;;;;;;;178.43;78.60;;;;;;;;;;5080530;28;20166;-57
2023/08/25 03:21:21;;;;;;;181.57;77.22;;;;;;;;;;5081962;28;20067;-57
2023/08/25 03:23:47;;;;;;;175.50;77.25;;;;;;;;;;5082312;28;20432;-57
2023/08/25 03:26:13;;;;;;;176.48;77.57;;;;;;;;;;5080639;28;20617;-56
2023/08/25 03:28:39;;;;;;;180.18;74.00;;;;;;;;;;5083432;28;20036;-56
2023/08/25 03:31:05;;;;;;;173.45;74.75;;;;;;;;;;5082223;28;20070;-56
2023/08/25 03:33:32;;;;;;;183.60;76.15;;;;;;;;;;5081541;28;20062;-56
2023/08/25 03:35:58;;;;;;;170.52;74.90;;;;;;;;;;5081099;28;20068;-56
2023/08/25 03:38:24;;;;;;;168.68;72.30;;;;;;;;;;5082935;28;20066;-57
2023/08/25 03:40:57;;;;;;;173.00;75.05;;;;;;;;;;5084940;28;20437;-56
2023/08/25 03:43:23;;;;;;;161.95;73.43;;;;;;;;;;5080692;28;20107;-57
2023/08/25 03:45:49;;;;;;;156.13;73.53;;;;;;;;;;5083830;28;20518;-56
2023/08/25 03:48:16;;;;;;;175.13;77.03;;;;;;;;;;5083254;28;20048;-56
2023/08/25 03:50:46;;;;;;;179.85;75.15;;;;;;;;;;5085464;28;20039;-57
2023/08/25 03:53:12;;;;;;;191.63;77.78;;;;;;;;;;5084649;28;20151;-56
2023/08/25 03:55:38;;;;;;;207.23;77.32;;;;;;;;;;5084640;28;20086;-57
2023/08/25 03:58:05;;;;;;;199.48;80.50;;;;;;;;;;5085902;28;20071;-56
2023/08/25 04:00:31;;;;;;;176.80;75.25;;;;;;;;;;5083620;28;20430;-57
2023/08/25 04:02:57;;;;;;;167.68;72.53;;;;;;;;;;5098502;28;20122;-56
2023/08/25 04:05:24;;;;;;;186.07;78.65;;;;;;;;;;5090649;28;20668;-56
2023/08/25 04:07:50;;;;;;;179.35;78.55;;;;;;;;;;5100507;28;20148;-56
2023/08/25 04:10:16;;;;;;;197.63;80.10;;;;;;;;;;5088956;28;20233;-56
2023/08/25 04:12:43;;;;;;;221.80;81.35;;;;;;;;;;5092255;28;20067;-57
2023/08/25 04:15:09;;;;;;;190.48;81.30;;;;;;;;;;5092748;28;20093;-57
2023/08/25 04:17:35;;;;;;;184.40;80.78;;;;;;;;;;5099611;28;20117;-57
2023/08/25 04:20:02;;;;;;;193.65;80.28;;;;;;;;;;5089432;28;20044;-57
2023/08/25 04:22:28;;;;;;;290.27;90.60;;;;;;;;;;5084772;28;20044;-56
2023/08/25 04:24:54;;;;;;;254.23;88.65;;;;;;;;;;5084233;28;20094;-57
2023/08/25 04:27:21;;;;;;;237.77;85.25;;;;;;;;;;5085190;28;20036;-57
2023/08/25 04:29:47;;;;;;;254.55;90.53;;;;;;;;;;5084771;28;20371;-57
2023/08/25 04:32:14;;;;;;;224.23;86.03;;;;;;;;;;5081914;28;20050;-56
2023/08/25 04:34:41;;;;;;;258.73;88.63;;;;;;;;;;5084420;28;20131;-56
2023/08/25 04:37:07;;;;;;;215.65;83.95;;;;;;;;;;5083204;28;20044;-57
2023/08/25 04:39:34;;;;;;;225.57;85.90;;;;;;;;;;5089060;28;20136;-56
2023/08/25 04:42:00;;;;;;;287.13;91.90;;;;;;;;;;5086754;28;20108;-57
2023/08/25 04:44:26;;;;;;;241.07;84.85;;;;;;;;;;5084370;28;20402;-56
2023/08/25 04:46:52;;;;;;;246.55;90.15;;;;;;;;;;5085191;28;20404;-56
2023/08/25 04:49:18;;;;;;;231.18;89.40;;;;;;;;;;5085447;28;20153;-56
2023/08/25 04:51:44;;;;;;;227.30;89.60;;;;;;;;;;5086334;28;20446;-56
2023/08/25 04:54:10;;;;;;;253.10;92.68;;;;;;;;;;5086278;28;20146;-56
2023/08/25 04:56:37;;;;;;;249.70;92.10;;;;;;;;;;5083166;28;20039;-56
2023/08/25 04:59:03;;;;;;;244.77;92.55;;;;;;;;;;5104148;27;20543;-57
2023/08/25 05:01:29;;;;;;;236.85;92.90;;;;;;;;;;5094502;28;20484;-56
2023/08/25 05:03:55;;;;;;;256.73;91.32;;;;;;;;;;5090729;28;20045;-56
2023/08/25 05:06:22;;;;;;;241.98;94.30;;;;;;;;;;5092104;28;20483;-56
2023/08/25 05:08:48;;;;;;;252.27;93.05;;;;;;;;;;5096665;28;20097;-56
2023/08/25 05:11:14;;;;;;;250.93;94.03;;;;;;;;;;5099664;28;20046;-57
2023/08/25 05:13:40;;;;;;;273.98;97.13;;;;;;;;;;5091490;28;20058;-56
2023/08/25 05:16:07;;;;;;;283.63;96.38;;;;;;;;;;5094024;28;20044;-57
2023/08/25 05:18:33;;;;;;;245.13;93.65;;;;;;;;;;5091889;28;20055;-57
2023/08/25 05:21:00;;;;;;;258.60;95.40;;;;;;;;;;5090252;28;20087;-56
2023/08/25 05:23:27;;;;;;;236.57;92.40;;;;;;;;;;5092424;28;20055;-56
2023/08/25 05:25:53;;;;;;;254.43;94.53;;;;;;;;;;5086183;28;20085;-61
2023/08/25 05:28:19;;;;;;;292.85;98.85;;;;;;;;;;5090138;28;20452;-57
2023/08/25 05:30:46;;;;;;;230.40;92.63;;;;;;;;;;5090570;28;20048;-57
2023/08/25 05:33:12;;;;;;;202.77;90.57;;;;;;;;;;5091394;28;20173;-58
2023/08/25 05:35:39;;;;;;;202.43;89.22;;;;;;;;;;5092510;28;20089;-58
2023/08/25 05:38:06;;;;;;;186.63;87.82;;;;;;;;;;5090518;28;20059;-58
2023/08/25 05:40:32;;;;;;;183.82;85.43;;;;;;;;;;5089970;28;20035;-58
2023/08/25 05:42:58;;;;;;;190.15;85.07;;;;;;;;;;5091076;28;20040;-58
2023/08/25 05:45:24;;;;;;;165.25;80.20;;;;;;;;;;5090308;28;20134;-58
2023/08/25 05:47:51;;;;;;;167.85;84.43;;;;;;;;;;5101605;28;20044;-58
2023/08/25 05:50:17;;;;;;;185.75;86.68;;;;;;;;;;5099391;28;20051;-58
2023/08/25 05:52:45;;;;;;;170.32;81.18;;;;;;;;;;5098653;28;20486;-58
2023/08/25 05:55:14;;;;;;;156.35;78.63;;;;;;;;;;5078616;28;20047;-58
2023/08/25 05:57:40;;;;;;;130.88;72.00;;;;;;;;;;5104752;28;20036;-58
2023/08/25 06:00:07;;;;;;;123.22;66.97;;;;;;;;;;5111317;28;20043;-58
2023/08/25 06:02:33;;;;;;;121.70;62.45;;;;;;;;;;5102990;28;20131;-58
2023/08/25 06:04:59;;;;;;;110.20;62.40;;;;;;;;;;5105128;28;20036;-58
2023/08/25 06:07:26;;;;;;;100.82;60.90;;;;;;;;;;5088729;28;20048;-58
2023/08/25 06:09:52;;;;;;;106.63;60.38;;;;;;;;;;5090221;28;20047;-58
2023/08/25 06:12:18;;;;;;;94.85;57.30;;;;;;;;;;5087027;28;20493;-58
2023/08/25 06:14:44;;;;;;;86.90;53.63;;;;;;;;;;5099440;28;20039;-58
2023/08/25 06:17:11;;;;;;;80.43;51.00;;;;;;;;;;5097461;28;20102;-58
2023/08/25 06:19:37;;;;;;;68.38;45.90;;;;;;;;;;5089072;28;20460;-58
2023/08/25 06:22:03;;;;;;;71.93;43.63;;;;;;;;;;5089028;28;20126;-58
2023/08/25 06:24:30;;;;;;;59.97;41.67;;;;;;;;;;5095202;28;20142;-66
2023/08/25 06:26:56;;;;;;;61.92;41.17;;;;;;;;;;5104794;27;20039;-63
2023/08/25 06:29:22;;;;;;;57.90;40.50;;;;;;;;;;5088035;28;20553;-68
2023/08/25 06:31:49;;;;;;;59.72;39.40;;;;;;;;;;5094276;28;20448;-64
2023/08/25 06:34:15;;;;;;;55.53;38.78;;;;;;;;;;5089530;28;20040;-58
2023/08/25 06:36:41;;;;;;;57.22;37.80;;;;;;;;;;5088771;28;20067;-58
2023/08/25 06:39:08;;;;;;;49.38;35.03;;;;;;;;;;5087610;28;20120;-58
2023/08/25 06:41:34;;;;;;;50.47;31.38;;;;;;;;;;5087765;28;20131;-58
2023/08/25 06:44:00;;;;;;;45.90;29.45;;;;;;;;;;5074067;28;20525;-58
2023/08/25 06:46:26;;;;;;;45.42;29.70;;;;;;;;;;5088412;28;20587;-58
2023/08/25 06:48:52;;;;;;;39.47;29.17;;;;;;;;;;5090892;28;20050;-58
2023/08/25 06:51:19;;;;;;;37.50;28.33;;;;;;;;;;5090161;28;20048;-58
2023/08/25 06:53:45;;;;;;;35.20;28.77;;;;;;;;;;5089005;28;20052;-58
2023/08/25 06:56:11;;;;;;;36.40;28.60;;;;;;;;;;5090413;28;20084;-58
2023/08/25 06:58:37;;;;;;;39.10;27.73;;;;;;;;;;5090811;28;20088;-58
2023/08/25 07:01:04;;;;;;;38.63;27.73;;;;;;;;;;5088918;28;20468;-58
2023/08/25 07:03:30;;;;;;;39.10;28.35;;;;;;;;;;5088013;28;20051;-58
2023/08/25 07:05:58;;;;;;;39.65;29.77;;;;;;;;;;5090403;28;20520;-58
2023/08/25 07:08:25;;;;;;;38.50;29.65;;;;;;;;;;5090742;28;20040;-58
2023/08/25 07:10:51;;;;;;;39.83;29.75;;;;;;;;;;5087261;28;20098;-59
2023/08/25 07:13:17;;;;;;;38.42;29.15;;;;;;;;;;5090893;28;20043;-58
2023/08/25 07:15:44;;;;;;;39.33;30.73;;;;;;;;;;5090807;28;20043;-58
2023/08/25 07:18:10;;;;;;;44.30;31.75;;;;;;;;;;5089630;28;20119;-58
2023/08/25 07:20:36;;;;;;;40.38;31.48;;;;;;;;;;5089457;28;20508;-58
2023/08/25 07:23:03;;;;;;;40.05;30.85;;;;;;;;;;5089688;28;20044;-58
2023/08/25 07:25:29;;;;;;;44.47;31.90;;;;;;;;;;5089010;28;20077;-58
2023/08/25 07:27:55;;;;;;;41.90;30.95;;;;;;;;;;5088996;28;20044;-58
2023/08/25 07:30:21;;;;;;;48.70;33.10;;;;;;;;;;5090259;28;20047;-58
2023/08/25 07:32:51;;;;;;;46.63;30.55;;;;;;;;;;5089845;28;20375;-58
2023/08/25 07:35:17;;;;;;;43.33;29.63;;;;;;;;;;5090927;28;20436;-58
2023/08/25 07:37:43;;;;;;;41.45;30.23;;;;;;;;;;5090598;28;20040;-58
2023/08/25 07:40:10;;;;;;;42.03;30.38;;;;;;;;;;5087484;28;20088;-58
2023/08/25 07:42:36;;;;;;;40.08;29.65;;;;;;;;;;5090441;28;20564;-60
2023/08/25 07:45:03;;;;;;;41.25;29.75;;;;;;;;;;5089842;28;20122;-60
2023/08/25 07:47:29;;;;;;;40.22;30.33;;;;;;;;;;5089651;28;20036;-59
2023/08/25 07:49:55;;;;;;;41.63;30.88;;;;;;;;;;5088369;28;20458;-59
2023/08/25 07:52:21;;;;;;;43.28;30.55;;;;;;;;;;5086340;28;20468;-59
2023/08/25 07:54:47;;;;;;;44.22;28.48;;;;;;;;;;5090360;28;20062;-58
2023/08/25 07:57:14;;;;;;;39.03;26.83;;;;;;;;;;5090432;28;20031;-58
2023/08/25 07:59:43;;;;;;;39.92;26.85;;;;;;;;;;5089376;28;20377;-59
2023/08/25 08:02:09;;;;;;;46.70;28.95;;;;;;;;;;5089725;28;20086;-59
2023/08/25 08:04:35;;;;;;;40.97;28.58;;;;;;;;;;5089416;28;20079;-59
2023/08/25 08:07:02;;;;;;;42.03;27.23;;;;;;;;;;5084915;28;20051;-59
2023/08/25 08:09:28;;;;;;;42.45;27.05;;;;;;;;;;5087028;28;20036;-58
2023/08/25 08:11:55;;;;;;;43.65;26.90;;;;;;;;;;5090060;28;20055;-58
2023/08/25 08:14:21;;;;;;;39.15;28.08;;;;;;;;;;5086539;28;20127;-58
2023/08/25 08:16:47;;;;;;;41.15;28.75;;;;;;;;;;5086266;28;20561;-58
2023/08/25 08:19:14;;;;;;;43.03;28.65;;;;;;;;;;5087748;28;20119;-58
2023/08/25 08:21:41;;;;;;;40.47;27.65;;;;;;;;;;5088177;28;20071;-58
2023/08/25 08:24:07;;;;;;;42.80;26.98;;;;;;;;;;5087411;28;20032;-58
2023/08/25 08:26:34;;;;;;;41.63;26.92;;;;;;;;;;5087330;28;20095;-59
2023/08/25 08:29:00;;;;;;;43.25;27.90;;;;;;;;;;5087007;28;20061;-58
2023/08/25 08:31:26;;;;;;;38.72;26.13;;;;;;;;;;5083708;28;20073;-58
2023/08/25 08:33:53;;;;;;;40.25;26.65;;;;;;;;;;5091501;28;20036;-59
2023/08/25 08:36:19;;;;;;;38.10;25.75;;;;;;;;;;5092826;28;20154;-59
2023/08/25 08:38:46;;;;;;;33.78;22.63;;;;;;;;;;5093723;28;20071;-58
2023/08/25 08:41:14;;;;;;;41.38;24.48;;;;;;;;;;5093369;28;20153;-59
2023/08/25 08:43:42;;;;;;;39.58;26.55;;;;;;;;;;5088757;28;20458;-58
2023/08/25 08:46:10;;;;;;;39.35;26.05;;;;;;;;;;5093263;28;20048;-59
2023/08/25 08:48:36;;;;;;;34.47;23.17;;;;;;;;;;5091223;28;20048;-59
2023/08/25 08:51:03;;;;;;;44.08;23.38;;;;;;;;;;5093222;28;20396;-59
2023/08/25 08:53:30;;;;;;;36.63;24.40;;;;;;;;;;5089440;28;20079;-59
2023/08/25 08:55:57;;;;;;;39.10;23.30;;;;;;;;;;5091126;28;20044;-59
2023/08/25 08:58:23;;;;;;;34.08;21.98;;;;;;;;;;5093149;28;20070;-59
2023/08/25 09:00:50;;;;;;;31.60;22.08;;;;;;;;;;5091191;28;20078;-59
2023/08/25 09:03:19;;;;;;;38.92;24.15;;;;;;;;;;5092139;28;20123;-59
2023/08/25 09:05:45;;;;;;;33.53;23.60;;;;;;;;;;5092830;28;20123;-58
2023/08/25 09:08:11;;;;;;;32.95;22.20;;;;;;;;;;5093071;28;20169;-59
2023/08/25 09:10:38;;;;;;;34.50;22.80;;;;;;;;;;5092039;28;20051;-59
2023/08/25 09:13:04;;;;;;;31.83;22.92;;;;;;;;;;5092830;28;20035;-59
2023/08/25 09:15:32;;;;;;;34.38;24.75;;;;;;;;;;5091047;28;20071;-58
2023/08/25 09:18:07;;;;;;;32.22;22.02;;;;;;;;;;5090006;28;20032;-59
2023/08/25 09:20:34;;;;;;;29.40;21.85;;;;;;;;;;5092666;28;20064;-59
2023/08/25 09:23:00;;;;;;;33.50;21.60;;;;;;;;;;5092510;28;20161;-58
2023/08/25 09:25:27;;;;;;;30.90;22.58;;;;;;;;;;5091696;28;20051;-58
2023/08/25 09:27:56;;;;;;;35.35;21.80;;;;;;;;;;5089436;28;20142;-58
2023/08/25 09:30:32;;;;;;;27.88;20.95;;;;;;;;;;5092451;28;20055;-58
2023/08/25 09:33:05;;;;;;;30.13;20.83;;;;;;;;;;5090543;28;20477;-58
2023/08/25 09:35:32;;;;;;;29.98;21.38;;;;;;;;;;5087825;28;20093;-58
2023/08/25 09:37:58;;;;;;;32.78;22.02;;;;;;;;;;5091619;28;20116;-58
2023/08/25 09:40:25;;;;;;;34.60;22.90;;;;;;;;;;5092500;28;20031;-58
2023/08/25 09:43:01;;;;;;;32.97;23.10;;;;;;;;;;5088301;28;20119;-58
2023/08/25 09:45:31;;;;;;;36.25;23.00;;;;;;;;;;5090485;28;20098;-58
2023/08/25 09:48:11;;;;;;;40.75;22.40;;;;;;;;;;5092189;28;20115;-58
2023/08/25 09:50:38;;;;;;;33.42;22.70;;;;;;;;;;5092016;28;20054;-58
2023/08/25 09:53:05;;;;;;;31.27;21.83;;;;;;;;;;5091187;28;20452;-58
2023/08/25 09:55:32;;;;;;;33.72;22.25;;;;;;;;;;5090971;28;20044;-58
2023/08/25 09:57:59;;;;;;;36.67;21.65;;;;;;;;;;5089815;28;20047;-58
2023/08/25 10:00:25;;;;;;;34.25;22.02;;;;;;;;;;5091059;28;20206;-58
2023/08/25 10:02:53;;;;;;;29.58;21.13;;;;;;;;;;5091626;28;20044;-58
2023/08/25 10:05:20;;;;;;;28.42;20.95;;;;;;;;;;5089103;28;20059;-58
2023/08/25 10:07:46;;;;;;;34.38;20.67;;;;;;;;;;5088344;28;20032;-59
2023/08/25 10:10:13;;;;;;;30.35;21.20;;;;;;;;;;5091883;28;20414;-58
2023/08/25 10:12:40;;;;;;;34.30;22.35;;;;;;;;;;5090719;28;20040;-58
2023/08/25 10:15:09;;;;;;;32.90;21.83;;;;;;;;;;5090927;28;20434;-58
2023/08/25 10:17:36;;;;;;;35.20;23.30;;;;;;;;;;5090314;28;20142;-58
2023/08/25 10:20:05;;;;;;;34.50;23.30;;;;;;;;;;5090850;28;20471;-58
2023/08/25 10:22:33;;;;;;;38.28;23.00;;;;;;;;;;5085313;28;20533;-58
2023/08/25 10:25:03;;;;;;;31.90;22.75;;;;;;;;;;5084111;28;20036;-58
2023/08/25 10:27:29;;;;;;;37.17;24.73;;;;;;;;;;5088946;28;20498;-58
2023/08/25 10:29:56;;;;;;;34.15;24.63;;;;;;;;;;5094894;28;20124;-58
2023/08/25 10:32:22;;;;;;;34.53;22.92;;;;;;;;;;5094495;28;20043;-58
2023/08/25 10:34:53;;;;;;;33.65;23.63;;;;;;;;;;5090860;28;20171;-58
2023/08/25 10:37:25;;;;;;;29.77;21.60;;;;;;;;;;5087004;28;20392;-58
2023/08/25 10:39:59;;;;;;;29.73;22.65;;;;;;;;;;5088407;28;20048;-58
2023/08/25 10:42:32;;;;;;;32.33;23.88;;;;;;;;;;5082640;28;20047;-58
2023/08/25 10:44:58;;;;;;;;;;;;;;;;;;5089036;28;20460;-58
2023/08/25 10:47:27;;;;;;;34.28;23.50;;;;;;;;;;5086904;28;19924;-58
2023/08/25 10:49:54;;;;;;;36.05;24.88;;;;;;;;;;5086494;28;20487;-58
2023/08/25 10:52:21;;;;;;;37.80;23.33;;;;;;;;;;5089829;27;20057;-58
2023/08/25 10:54:48;;;;;;;31.30;23.60;;;;;;;;;;5085630;28;20492;-58
2023/08/25 10:57:21;;;;;;;39.05;27.05;;;;;;;;;;5082301;28;20043;-58
2023/08/25 10:59:51;;;;;;;35.17;25.50;;;;;;;;;;5082454;28;20063;-58
2023/08/25 11:02:34;;;;;;;39.05;24.13;;;;;;;;;;5087478;28;20598;-58
2023/08/25 11:05:24;;;;;;;38.40;24.63;;;;;;;;;;5090769;28;20048;-59
2023/08/25 11:07:50;;;;;;;31.55;22.83;;;;;;;;;;5090181;28;20621;-58
2023/08/25 11:10:21;;;;;;;37.90;24.15;;;;;;;;;;5089722;28;20044;-58
2023/08/25 11:12:49;;;;;;;33.42;22.70;;;;;;;;;;5088963;28;20068;-58
2023/08/25 11:15:15;;;;;;;32.42;22.88;;;;;;;;;;5088675;28;20106;-58
2023/08/25 11:17:41;;;;;;;32.22;23.00;;;;;;;;;;5085015;28;20356;-58
2023/08/25 11:20:08;;;;;;;32.05;22.20;;;;;;;;;;5088173;28;20040;-58
2023/08/25 11:22:34;;;;;;;31.58;23.17;;;;;;;;;;5090926;28;20040;-58
2023/08/25 11:25:00;;;;;;;31.88;23.90;;;;;;;;;;5089514;28;20059;-58
2023/08/25 11:27:28;;;;;;;32.28;23.10;;;;;;;;;;5090095;28;20036;-58
2023/08/25 11:30:08;;;;;;;28.17;21.48;;;;;;;;;;5091225;28;20048;-58
2023/08/25 11:32:34;;;;;;;33.67;22.80;;;;;;;;;;5090290;28;20538;-58
2023/08/25 11:35:03;;;;;;;29.15;22.42;;;;;;;;;;5091741;28;20040;-58
2023/08/25 11:37:29;;;;;;;29.30;22.95;;;;;;;;;;5088724;28;20456;-58
2023/08/25 11:39:55;;;;;;;31.83;22.75;;;;;;;;;;5088990;28;20041;-58
2023/08/25 11:42:22;;;;;;;35.35;22.70;;;;;;;;;;5091911;28;20035;-58
2023/08/25 11:44:50;;;;;;;35.00;22.85;;;;;;;;;;5088363;28;20054;-58
2023/08/25 11:47:17;;;;;;;31.10;22.77;;;;;;;;;;5090231;28;20047;-58
2023/08/25 11:49:43;;;;;;;28.27;21.50;;;;;;;;;;5092805;28;20044;-58
2023/08/25 11:52:09;;;;;;;25.35;20.67;;;;;;;;;;5086708;28;20056;-58
2023/08/25 11:54:46;;;;;;;28.55;20.35;;;;;;;;;;5092121;28;20143;-58
2023/08/25 11:57:12;;;;;;;32.92;21.73;;;;;;;;;;5091689;28;20199;-58
2023/08/25 11:59:48;;;;;;;30.35;20.77;;;;;;;;;;5090505;28;20092;-58
2023/08/25 12:02:16;;;;;;;29.52;19.17;;;;;;;;;;5086946;28;20044;-58
2023/08/25 12:04:53;;;;;;;27.70;18.95;;;;;;;;;;5089821;28;20043;-58
2023/08/25 12:07:23;;;;;;;27.75;20.08;;;;;;;;;;5085339;28;20055;-58
2023/08/25 12:10:00;;;;;;;28.23;20.27;;;;;;;;;;5091358;28;20131;-59
2023/08/25 12:12:30;;;;;;;27.98;21.10;;;;;;;;;;5093856;28;20117;-58
2023/08/25 12:14:56;;;;;;;28.55;21.45;;;;;;;;;;5092299;28;20036;-59
2023/08/25 12:17:22;;;;;;;25.80;20.70;;;;;;;;;;5092711;28;20131;-59
2023/08/25 12:19:49;;;;;;;28.25;20.38;;;;;;;;;;5093102;28;20090;-60
2023/08/25 12:22:16;;;;;;;26.17;20.58;;;;;;;;;;5086375;28;20042;-58
2023/08/25 12:24:46;;;;;;;31.23;21.05;;;;;;;;;;5093555;28;20076;-58
2023/08/25 12:27:12;;;;;;;28.25;21.33;;;;;;;;;;5092800;28;20414;-58
2023/08/25 12:29:39;;;;;;;37.33;21.25;;;;;;;;;;5093775;28;20086;-58
2023/08/25 12:32:09;;;;;;;27.48;21.05;;;;;;;;;;5093229;28;20214;-58
2023/08/25 12:34:35;;;;;;;27.13;20.33;;;;;;;;;;5092760;28;20098;-57
2023/08/25 12:37:03;;;;;;;29.27;21.17;;;;;;;;;;5093066;28;20334;-58
2023/08/25 12:39:29;;;;;;;28.05;20.33;;;;;;;;;;5093837;28;20044;-58
2023/08/25 12:41:56;;;;;;;29.27;21.63;;;;;;;;;;5092579;28;20065;-58
2023/08/25 12:44:22;;;;;;;30.17;21.15;;;;;;;;;;5093485;28;20044;-58
2023/08/25 12:46:49;;;;;;;34.45;21.90;;;;;;;;;;5091560;28;20407;-58
2023/08/25 12:49:15;;;;;;;29.00;20.25;;;;;;;;;;5092649;28;20089;-58
2023/08/25 12:51:41;;;;;;;26.10;19.40;;;;;;;;;;5092787;28;20109;-58
2023/08/25 12:54:15;;;;;;;26.55;18.90;;;;;;;;;;5093402;28;20036;-58
2023/08/25 12:56:42;;;;;;;28.55;18.33;;;;;;;;;;5092368;28;20040;-58
2023/08/25 12:59:08;;;;;;;28.10;18.58;;;;;;;;;;5092987;28;20123;-58
2023/08/25 13:01:35;;;;;;;27.40;18.27;;;;;;;;;;5093173;28;20123;-58
2023/08/25 13:04:01;;;;;;;24.63;18.58;;;;;;;;;;5092173;28;20044;-58
2023/08/25 13:06:27;;;;;;;26.83;17.60;;;;;;;;;;5092758;28;20040;-58
2023/08/25 13:08:53;;;;;;;27.00;18.67;;;;;;;;;;5092266;28;20468;-58
2023/08/25 13:11:19;;;;;;;32.17;19.33;;;;;;;;;;5093205;28;20047;-58
2023/08/25 13:13:45;;;;;;;27.90;19.00;;;;;;;;;;5093130;28;20047;-58
2023/08/25 13:16:12;;;;;;;27.65;19.35;;;;;;;;;;5090859;28;20051;-57
2023/08/25 13:18:38;;;;;;;24.30;18.52;;;;;;;;;;5092597;28;20048;-58
2023/08/25 13:21:04;;;;;;;27.65;18.98;;;;;;;;;;5091233;28;20739;-58
2023/08/25 13:23:32;;;;;;;22.23;18.17;;;;;;;;;;5091867;28;20040;-58
2023/08/25 13:25:58;;;;;;;22.95;17.50;;;;;;;;;;5092672;28;20119;-58
2023/08/25 13:28:24;;;;;;;24.55;17.92;;;;;;;;;;5092500;28;20086;-58
2023/08/25 13:30:50;;;;;;;27.23;17.33;;;;;;;;;;5091775;28;20040;-58
2023/08/25 13:33:17;;;;;;;22.95;16.33;;;;;;;;;;5092176;28;20403;-58
2023/08/25 13:35:44;;;;;;;25.83;14.20;;;;;;;;;;5092465;28;20105;-58
2023/08/25 13:38:10;;;;;;;19.88;15.02;;;;;;;;;;5091583;28;20405;-58
2023/08/25 13:40:36;;;;;;;22.55;15.32;;;;;;;;;;5078395;28;20132;-58
2023/08/25 13:43:02;;;;;;;19.02;13.25;;;;;;;;;;5092270;28;20441;-58
2023/08/25 13:45:29;;;;;;;17.52;14.50;;;;;;;;;;5091056;28;20112;-58
2023/08/25 13:47:55;;;;;;;19.90;13.35;;;;;;;;;;5090993;28;20036;-58
2023/08/25 13:50:21;;;;;;;17.83;12.98;;;;;;;;;;5091851;28;20642;-58
2023/08/25 13:52:47;;;;;;;16.10;12.25;;;;;;;;;;5091147;28;20095;-58
2023/08/25 13:55:14;;;;;;;14.68;12.50;;;;;;;;;;5091903;28;20044;-59
2023/08/25 13:57:40;;;;;;;17.33;12.05;;;;;;;;;;5092132;28;20031;-58
2023/08/25 14:00:07;;;;;;;14.77;11.48;;;;;;;;;;5087683;28;20042;-58
2023/08/25 14:02:33;;;;;;;14.10;10.65;;;;;;;;;;5090449;28;20058;-58
2023/08/25 14:05:00;;;;;;;13.13;10.73;;;;;;;;;;5090627;28;20038;-58
2023/08/25 14:07:26;;;;;;;16.17;11.30;;;;;;;;;;5091580;28;20070;-58
2023/08/25 14:09:52;;;;;;;13.27;10.32;;;;;;;;;;5090204;28;20475;-58